Latest Weather Observations for Bowen Airport AWS

IDQ60801

Issued at 9:02 pm EST Thursday 23 November 2017 (issued every 30 minutes, with the page automatically refreshed every 10 minutes)

About weather observations | Map of weather stations | Latest weather observations for QLD | Other Formats
Station Details ID: 033327 Name: BOWEN AIRPORT AWS Lat: -20.02 Lon: 148.21 Height: 5.9 m
Data from the previous 72 hours. | See also: Recent months at Bowen Airport AWS
Date/Time
EST
Temp
°C
App
Temp
°C
Dew
Point
°C
Rel
Hum
%
Delta-T
°C
Wind Press
QNH
hPa
Press
MSL
hPa
Rain since
9am
mm
Dir  Spd
km/h
Gust
km/h
Spd
kts
Gust
kts
23/09:00pm 24.3 25.1 19.8 76 2.9 SE 15 20 8 11 1011.7 1011.6 0.0
23/08:30pm 24.8 24.7 19.6 73 3.4 SE 19 26 10 14 1011.2 1011.1 0.0
23/08:00pm 25.1 25.1 20.1 74 3.2 SE 20 24 11 13 1010.8 1010.7 0.0
23/07:30pm 25.8 25.8 19.7 69 3.9 E 19 28 10 15 1010.5 1010.4 0.0
23/07:00pm 25.8 25.5 19.2 67 4.2 E 19 26 10 14 1010.4 1010.3 0.0
23/06:30pm 26.1 25.4 19.5 67 4.3 E 22 28 12 15 1009.9 1009.8 0.0
23/06:00pm 26.6 25.1 18.5 61 5.2 E 24 33 13 18 1009.8 1009.7 0.0
23/05:30pm 27.1 25.0 18.1 58 5.7 E 26 33 14 18 1009.4 1009.3 0.0
23/05:00pm 27.4 25.1 18.4 58 5.7 E 28 35 15 19 1009.3 1009.2 0.0
23/04:30pm 27.7 26.6 19.5 61 5.3 E 24 32 13 17 1008.9 1008.8 0.0
23/04:00pm 28.4 26.8 19.1 57 6.0 E 26 33 14 18 1008.8 1008.7 0.0
23/03:30pm 28.4 25.6 18.2 54 6.5 ENE 30 39 16 21 1008.8 1008.7 0.0
23/03:00pm 29.1 27.7 18.8 53 6.7 E 24 32 13 17 1009.1 1009.0 0.0
23/02:30pm 29.0 26.2 17.2 49 7.4 E 28 35 15 19 1009.4 1009.3 0.0
23/02:00pm 29.4 27.6 17.9 50 7.3 ENE 24 32 13 17 1009.5 1009.4 0.0
23/01:30pm 28.1 27.1 17.9 54 6.5 ENE 20 28 11 15 1009.8 1009.7 0.0
23/01:00pm 29.0 28.2 18.4 52 6.8 E 20 26 11 14 1010.0 1009.9 0.0
23/12:30pm 28.9 28.2 18.7 54 6.6 ENE 20 28 11 15 1010.3 1010.2 0.0
23/12:00pm 28.2 28.0 18.6 56 6.2 E 17 22 9 12 1010.5 1010.4 0.0
23/11:30am 28.0 27.3 18.7 57 6.0 ESE 20 26 11 14 1010.7 1010.6 0.0
23/11:00am 27.9 27.2 18.6 57 6.0 ESE 20 28 11 15 1010.9 1010.8 0.0
23/10:30am 27.7 27.6 18.7 58 5.8 ESE 17 22 9 12 1011.1 1011.0 0.0
23/10:00am 27.6 27.3 19.1 59 5.5 ESE 19 24 10 13 1011.4 1011.3 0.0
23/09:30am 26.8 26.3 18.6 60 5.2 SE 19 24 10 13 1011.5 1011.4 0.0
23/09:00am 25.9 25.3 18.8 65 4.5 ESE 20 24 11 13 1011.8 1011.7 1.2
23/08:30am 25.8 25.4 19.0 66 4.4 ESE 19 22 10 12 1011.9 1011.8 1.2
23/08:00am 25.4 25.2 19.3 69 3.9 ESE 19 22 10 12 1011.7 1011.6 1.2
23/07:30am 23.9 23.9 19.0 74 3.1 SE 17 20 9 11 1011.8 1011.7 1.2
23/07:00am 23.1 23.0 18.8 77 2.7 SE 17 24 9 13 1011.5 1011.4 1.2
23/06:30am 22.6 22.5 18.8 79 2.4 SE 17 20 9 11 1011.1 1011.0 1.2
23/06:00am 21.9 22.6 18.9 83 1.9 SE 13 17 7 9 1010.7 1010.6 1.2
23/05:30am 20.9 21.9 18.7 87 1.4 SE 11 17 6 9 1010.4 1010.3 1.2
23/05:00am 20.5 21.8 18.4 88 1.3 SSE 9 13 5 7 1009.9 1009.8 1.2
23/04:30am 20.4 22.0 18.3 88 1.3 SSE 7 9 4 5 1009.6 1009.5 1.2
23/04:00am 20.5 21.7 18.3 87 1.4 SSE 9 11 5 6 1009.2 1009.1 1.2
23/03:30am 20.7 21.6 18.5 87 1.4 SSE 11 17 6 9 1008.8 1008.7 1.2
23/03:00am 20.8 21.3 18.4 86 1.5 SE 13 15 7 8 1008.9 1008.8 1.2
23/02:30am 21.0 21.9 18.4 85 1.6 SE 11 15 6 8 1009.0 1008.9 1.2
23/02:00am 21.5 21.8 18.7 84 1.8 SE 15 19 8 10 1009.0 1008.9 1.2
23/01:30am 21.7 21.8 19.1 85 1.6 SE 17 22 9 12 1009.0 1008.9 1.2
23/01:00am 21.6 21.9 18.8 84 1.8 SE 15 20 8 11 1009.3 1009.2 1.2
23/12:30am 21.1 22.4 18.5 85 1.6 SE 9 11 5 6 1009.9 1009.8 1.2
23/12:00am 21.3 22.2 18.5 84 1.8 SE 11 15 6 8 1010.2 1010.1 1.2
 
Date/Time
EST
Temp
°C
App
Temp
°C
Dew
Point
°C
Rel
Hum
%
Delta-T
°C
Wind Press
QNH
hPa
Press
MSL
hPa
Rain since
9am
mm
Dir  Spd
km/h
Gust
km/h
Spd
kts
Gust
kts
22/11:30pm 21.9 22.5 18.7 82 2.0 SE 13 19 7 10 1010.6 1010.5 1.2
22/11:00pm 22.0 21.9 18.8 82 2.0 SE 17 24 9 13 1010.7 1010.6 1.2
22/10:30pm 22.3 22.2 18.7 80 2.3 SE 17 22 9 12 1011.1 1011.0 1.2
22/10:00pm 23.2 22.7 19.2 78 2.5 SE 20 32 11 17 1011.0 1010.9 1.2
22/09:30pm 23.4 22.4 18.9 76 2.9 ESE 22 30 12 16 1010.9 1010.8 1.2
22/09:00pm 23.6 21.5 18.9 75 3.0 SE 28 33 15 18 1010.7 1010.6 1.2
22/08:30pm 23.6 21.6 19.1 76 2.9 ESE 28 41 15 22 1010.6 1010.5 1.2
22/08:00pm 23.7 23.0 19.4 77 2.8 SE 22 37 12 20 1010.6 1010.5 1.2
22/07:30pm 23.5 21.1 19.2 77 2.7 SE 30 35 16 19 1010.2 1010.1 1.2
22/07:00pm 23.8 21.4 19.1 75 3.0 SE 30 37 16 20 1010.1 1010.0 1.2
22/06:30pm 23.9 22.5 19.6 77 2.8 SE 26 33 14 18 1009.7 1009.6 1.2
22/06:00pm 24.2 24.2 19.7 76 2.9 E 19 32 10 17 1009.2 1009.1 1.2
22/05:30pm 25.7 24.9 18.4 64 4.6 ESE 20 28 11 15 1009.1 1009.0 0.8
22/05:00pm 26.1 24.7 18.0 61 5.1 E 22 30 12 16 1008.9 1008.8 0.8
22/04:30pm 26.9 24.7 16.8 54 6.3 E 24 32 13 17 1008.5 1008.4 0.8
22/04:00pm 27.0 25.3 18.0 58 5.7 E 24 32 13 17 1008.1 1008.0 0.8
22/03:30pm 26.8 24.8 16.4 53 6.4 E 22 30 12 16 1008.5 1008.4 0.8
22/03:00pm 26.0 25.0 18.9 65 4.5 E 22 30 12 16 1008.9 1008.8 0.8
22/02:30pm 26.8 25.3 17.8 57 5.7 ESE 22 32 12 17 1008.9 1008.8 0.6
22/02:00pm 27.1 28.2 19.7 64 4.8 ENE 13 20 7 11 1009.1 1009.0 0.6
22/01:30pm 23.6 24.7 19.7 79 2.5 ENE 13 19 7 10 1009.6 1009.5 0.6
22/01:00pm 23.7 23.4 19.6 78 2.6 SE 20 26 11 14 1010.1 1010.0 0.0
22/12:30pm 26.8 26.6 18.4 60 5.3 SE 17 28 9 15 1010.2 1010.1 0.0
22/12:00pm 26.8 27.6 18.1 59 5.5 E 11 15 6 8 1010.4 1010.3 0.0
22/11:30am 26.3 26.5 17.6 58 5.5 ESE 13 17 7 9 1010.7 1010.6 0.0
22/11:00am 25.2 25.1 16.9 60 5.1 ESE 13 17 7 9 1011.0 1010.9 0.0
22/10:30am 26.5 26.7 18.6 62 5.0 E 15 20 8 11 1011.4 1011.3 0.0
22/10:00am 26.0 26.5 19.2 66 4.4 E 15 19 8 10 1011.5 1011.4 0.0
22/09:30am 25.4 26.0 19.5 70 3.8 ESE 15 19 8 10 1011.7 1011.6 0.0
22/09:00am 23.9 23.9 19.0 74 3.1 ESE 17 24 9 13 1012.0 1011.9 2.0
22/08:30am 22.5 22.2 19.5 83 1.9 E 20 28 11 15 1011.9 1011.8 2.0
22/08:00am 23.4 23.1 18.3 73 3.2 ESE 17 22 9 12 1011.7 1011.6 2.0
22/07:30am 23.0 23.9 18.5 76 2.8 SE 11 17 6 9 1011.7 1011.6 2.0
22/07:00am 22.2 21.4 18.0 77 2.6 SE 19 22 10 12 1011.5 1011.4 2.0
22/06:30am 21.7 20.8 18.1 80 2.2 SE 20 26 11 14 1011.4 1011.3 2.0
22/06:00am 21.5 20.7 18.1 81 2.1 SE 19 26 10 14 1011.0 1010.9 2.0
22/05:30am 21.4 21.0 18.0 81 2.1 SE 17 20 9 11 1010.6 1010.5 2.0
22/05:00am 21.5 21.6 18.3 82 2.0 SE 15 20 8 11 1010.4 1010.3 2.0
22/04:30am 21.7 22.3 18.5 82 2.0 SE 13 17 7 9 1010.3 1010.2 2.0
22/04:00am 21.6 21.7 18.4 82 2.0 SE 15 19 8 10 1009.7 1009.6 2.0
22/03:30am 21.6 21.4 18.6 83 1.9 SE 17 22 9 12 1009.9 1009.8 2.0
22/03:00am 21.3 22.5 18.3 83 1.9 SE 9 11 5 6 1009.8 1009.7 2.0
22/02:30am 21.5 22.4 18.3 82 2.0 SE 11 15 6 8 1009.7 1009.6 2.0
22/02:00am 21.6 22.4 18.2 81 2.1 SSE 11 17 6 9 1009.6 1009.5 2.0
22/01:30am 21.6 22.0 18.2 81 2.1 SE 13 19 7 10 1009.6 1009.5 2.0
22/01:00am 21.9 22.5 18.5 81 2.1 SE 13 17 7 9 1010.0 1009.9 2.0
22/12:30am 21.6 22.3 18.0 80 2.2 SE 11 15 6 8 1010.7 1010.6 2.0
22/12:00am 22.3 22.7 18.1 77 2.6 SE 13 17 7 9 1011.0 1010.9 2.0
 
Date/Time
EST
Temp
°C
App
Temp
°C
Dew
Point
°C
Rel
Hum
%
Delta-T
°C
Wind Press
QNH
hPa
Press
MSL
hPa
Rain since
9am
mm
Dir  Spd
km/h
Gust
km/h
Spd
kts
Gust
kts
21/11:30pm 22.6 23.6 18.6 78 2.5 SE 11 17 6 9 1011.0 1010.9 2.0
21/11:00pm 22.4 22.8 18.2 77 2.6 SE 13 15 7 8 1011.2 1011.1 2.0
21/10:30pm 22.9 24.0 18.9 78 2.5 SE 11 17 6 9 1011.6 1011.5 2.0
21/10:00pm 22.9 23.7 19.1 79 2.4 SE 13 17 7 9 1011.8 1011.7 2.0
21/09:30pm 22.3 24.2 18.9 81 2.1 SE 7 11 4 6 1011.8 1011.7 2.0
21/09:00pm 22.3 23.3 18.7 80 2.3 SSE 11 15 6 8 1012.2 1012.1 2.0
21/08:30pm 22.4 23.5 18.8 80 2.3 SSE 11 13 6 7 1012.4 1012.3 2.0
21/08:00pm 22.5 23.3 19.1 81 2.2 SSE 13 15 7 8 1011.9 1011.8 2.0
21/07:30pm 22.7 23.6 19.3 81 2.2 SE 13 19 7 10 1011.7 1011.6 2.0
21/07:00pm 23.2 22.9 19.2 78 2.5 SE 19 26 10 14 1011.4 1011.3 2.0
21/06:30pm 23.4 24.0 19.5 79 2.5 SE 15 20 8 11 1011.2 1011.1 2.0
21/06:00pm 23.5 24.7 20.0 81 2.3 SE 13 17 7 9 1011.5 1011.4 2.0
21/05:30pm 22.5 25.0 19.9 85 1.7 ESE 6 7 3 4 1011.6 1011.5 2.0
21/05:00pm 22.3 22.4 20.0 87 1.5 E 19 28 10 15 1011.4 1011.3 1.2
21/04:30pm 25.6 24.8 18.0 63 4.8 SE 19 24 10 13 1011.0 1010.9 0.0
21/04:00pm 24.3 24.3 18.2 68 3.8 SE 15 19 8 10 1011.0 1010.9 0.0
21/03:30pm 25.5 24.1 16.9 59 5.3 SE 20 30 11 16 1011.2 1011.1 0.0
21/03:00pm 25.4 23.7 17.3 61 5.0 SE 22 26 12 14 1011.3 1011.2 0.0
21/02:30pm 25.8 24.9 17.7 61 5.1 ESE 19 24 10 13 1011.5 1011.4 0.0
21/02:00pm 24.6 23.4 17.1 63 4.6 ESE 19 22 10 12 1012.0 1011.9 0.0
21/01:30pm 24.6 23.4 18.3 68 4.0 SE 22 28 12 15 1012.6 1012.5 0.0
21/01:00pm 25.0 22.7 17.7 64 4.6 SE 26 33 14 18 1012.4 1012.3 0.0
21/12:30pm 24.7 22.2 17.2 63 4.7 SE 26 33 14 18 1012.6 1012.5 0.0
21/12:00pm 25.5 24.4 17.4 61 5.1 ESE 19 24 10 13 1012.7 1012.6 0.0
21/11:30am 25.1 23.2 15.1 53 6.0 SE 19 26 10 14 1013.2 1013.1 0.0
21/11:00am 26.0 23.8 16.0 54 6.1 ESE 22 32 12 17 1013.5 1013.4 0.0
21/10:30am 27.5 24.4 14.5 45 7.8 E 24 30 13 16 1013.5 1013.4 0.0
21/10:00am 27.5 24.9 15.8 48 7.2 E 24 30 13 16 1013.6 1013.5 0.0
21/09:30am 27.0 24.7 16.6 53 6.4 E 24 32 13 17 1013.7 1013.6 0.0
21/09:00am 27.9 27.0 17.7 53 6.4 ESE 19 28 10 15 1013.6 1013.5 0.2
21/08:30am 25.9 24.8 17.3 59 5.4 ESE 19 24 10 13 1013.4 1013.3 0.2
21/08:00am 25.7 25.3 17.1 59 5.3 ESE 15 22 8 12 1013.2 1013.1 0.2
21/07:30am 25.3 24.5 18.0 64 4.6 ESE 19 22 10 12 1012.9 1012.8 0.2
21/07:00am 24.7 23.6 17.7 65 4.4 SE 20 28 11 15 1012.8 1012.7 0.2
21/06:30am 23.9 23.3 17.6 68 3.9 SE 17 22 9 12 1012.4 1012.3 0.2
21/06:00am 22.9 22.0 17.8 73 3.2 SE 19 24 10 13 1012.1 1012.0 0.2
21/05:30am 22.5 21.9 17.6 74 3.0 SE 17 20 9 11 1011.9 1011.8 0.2
21/05:00am 22.2 22.2 18.0 77 2.6 SE 15 17 8 9 1011.6 1011.5 0.2
21/04:30am 22.2 23.1 18.4 79 2.4 SE 11 17 6 9 1011.7 1011.6 0.2
21/04:00am 22.1 22.7 18.5 80 2.3 SE 13 17 7 9 1011.3 1011.2 0.2
21/03:30am 22.2 22.7 19.2 83 1.9 SE 15 19 8 10 1011.4 1011.3 0.2
21/03:00am 23.0 22.0 19.6 81 2.2 ESE 24 30 13 16 1011.2 1011.1 0.2
21/02:30am 23.0 21.0 19.2 79 2.4 ESE 28 35 15 19 1011.5 1011.4 0.2
21/02:00am 22.4 21.9 19.0 81 2.2 SE 20 26 11 14 1011.5 1011.4 0.2
21/01:30am 21.7 22.4 18.9 84 1.8 SE 13 17 7 9 1011.8 1011.7 0.2
21/01:00am 21.9 22.3 19.1 84 1.8 SSE 15 20 8 11 1012.3 1012.2 0.2
21/12:30am 22.2 22.0 19.4 84 1.8 SE 19 22 10 12 1012.7 1012.6 0.2
21/12:00am 22.0 22.2 19.4 85 1.7 SE 17 20 9 11 1013.4 1013.3 0.2
 
Date/Time
EST
Temp
°C
App
Temp
°C
Dew
Point
°C
Rel
Hum
%
Delta-T
°C
Wind Press
QNH
hPa
Press
MSL
hPa
Rain since
9am
mm
Dir  Spd
km/h
Gust
km/h
Spd
kts
Gust
kts
20/11:30pm 21.9 22.4 19.3 85 1.7 SE 15 22 8 12 1013.8 1013.7 0.2
20/11:00pm 21.9 23.3 19.6 87 1.5 SE 11 19 6 10 1014.3 1014.2 0.2
20/10:30pm 22.2 22.4 18.6 80 2.3 SE 15 20 8 11 1014.4 1014.3 0.0
20/10:00pm 22.6 22.6 19.0 80 2.3 SE 17 24 9 13 1014.3 1014.2 0.0
20/09:30pm 22.7 22.2 19.1 80 2.3 SE 20 28 11 15 1014.1 1014.0 0.0

Other Formats:

Comma delimited format used in spreadsheet applications
http://www.bom.gov.au/fwo/IDQ60801/IDQ60801.94383.axf

JavaScript Object Notation format (JSON) in row-major order
http://www.bom.gov.au/fwo/IDQ60801/IDQ60801.94383.json